Time;durP1;ratioP1;P1;durP2;ratioP2;P2;SDS_P1;SDS_P2;PMS_P1;PMS_P2;Temp;Humidity;BMP_temperature;BMP_pressure;BME280_temperature;BME280_humidity;BME280_pressure;Samples;Min_cycle;Max_cycle;Signal;HPM_P1;HPM_P2
2022/11/14 00:02:18;;;;;;;0.30;0.30;;;;;;;9.26;100.00;100083.22;4985917;28;20113;-84
2022/11/14 00:04:47;;;;;;;0.40;0.40;;;;;;;9.22;100.00;100068.53;5017780;28;20503;-87
2022/11/14 00:07:13;;;;;;;0.30;0.30;;;;;;;9.13;100.00;100057.06;5019535;28;20430;-82
2022/11/14 00:09:41;;;;;;;0.30;0.30;;;;;;;9.05;100.00;100049.09;5027701;28;20036;-84
2022/11/14 00:12:11;;;;;;;0.40;0.40;;;;;;;8.92;100.00;100030.97;5024741;28;20119;-83
2022/11/14 00:14:37;;;;;;;0.30;0.30;;;;;;;8.78;100.00;100027.22;5020769;28;20037;-82
2022/11/14 00:17:05;;;;;;;0.40;0.40;;;;;;;8.54;100.00;100028.28;5024337;28;20446;-83
2022/11/14 00:19:30;;;;;;;0.30;0.30;;;;;;;8.50;100.00;100045.75;5027021;28;20033;-81
2022/11/14 00:21:56;;;;;;;0.30;0.30;;;;;;;8.30;100.00;100028.44;4984626;28;20064;-82
2022/11/14 00:24:22;;;;;;;0.30;0.30;;;;;;;8.31;100.00;100040.84;5015129;28;20045;-85
2022/11/14 00:26:50;;;;;;;0.30;0.30;;;;;;;8.31;100.00;100057.75;5018712;28;20034;-82
2022/11/14 00:29:15;;;;;;;0.35;0.35;;;;;;;8.26;100.00;100037.88;4999793;28;20046;-88
2022/11/14 00:31:41;;;;;;;0.30;0.30;;;;;;;8.40;100.00;100045.13;5017947;28;20034;-81
2022/11/14 00:34:07;;;;;;;0.40;0.40;;;;;;;8.38;100.00;100037.25;5022151;28;20104;-83
2022/11/14 00:36:33;;;;;;;0.70;0.70;;;;;;;8.31;100.00;100039.00;5038765;28;20476;-81
2022/11/14 00:38:58;;;;;;;0.30;0.30;;;;;;;8.30;100.00;100045.34;5014215;28;20072;-83
2022/11/14 00:41:24;;;;;;;0.30;0.30;;;;;;;8.30;100.00;100034.63;4991819;28;20451;-84
2022/11/14 00:43:50;;;;;;;0.30;0.30;;;;;;;8.40;100.00;100039.78;5003948;28;20056;-81
2022/11/14 00:46:18;;;;;;;0.40;0.40;;;;;;;8.45;100.00;100041.94;4996903;28;20037;-83
2022/11/14 00:48:44;;;;;;;0.40;0.40;;;;;;;8.37;100.00;100008.78;4996896;28;20476;-81
2022/11/14 00:51:10;;;;;;;0.30;0.30;;;;;;;8.67;100.00;100041.06;5012978;28;20040;-83
2022/11/14 00:53:36;;;;;;;0.40;0.40;;;;;;;8.78;100.00;100035.25;5019273;28;20040;-81
2022/11/14 00:56:02;;;;;;;0.30;0.30;;;;;;;8.82;100.00;100026.88;5017314;28;20048;-82
2022/11/14 00:58:30;;;;;;;0.32;0.32;;;;;;;8.90;100.00;100034.84;5014986;28;20064;-82
2022/11/14 01:00:56;;;;;;;0.38;0.38;;;;;;;8.80;100.00;100022.50;5007409;28;20029;-82
2022/11/14 01:03:22;;;;;;;0.30;0.30;;;;;;;8.89;100.00;100022.44;5016427;28;20099;-82
2022/11/14 01:05:49;;;;;;;0.30;0.30;;;;;;;8.89;100.00;100023.28;5021681;28;20048;-85
2022/11/14 01:08:16;;;;;;;0.40;0.40;;;;;;;8.98;100.00;100029.38;5043178;28;20138;-82
2022/11/14 01:10:44;;;;;;;0.40;0.40;;;;;;;8.96;100.00;100036.78;5003850;28;20408;-83
2022/11/14 01:13:10;;;;;;;0.38;0.38;;;;;;;8.90;100.00;100024.13;5023931;28;20092;-84
2022/11/14 01:15:41;;;;;;;0.40;0.40;;;;;;;9.04;100.00;100034.00;5009408;28;20044;-86
2022/11/14 01:18:09;;;;;;;0.30;0.30;;;;;;;9.04;100.00;100020.59;5023902;28;20090;-83
2022/11/14 01:20:38;;;;;;;0.40;0.40;;;;;;;9.09;100.00;100012.84;5015588;28;20063;-82
2022/11/14 01:23:03;;;;;;;0.47;0.47;;;;;;;9.14;100.00;100021.16;5026063;28;20076;-83
2022/11/14 01:25:32;;;;;;;0.40;0.40;;;;;;;9.17;100.00;100023.47;4999687;28;20489;-82
2022/11/14 01:27:57;;;;;;;0.40;0.40;;;;;;;9.14;100.00;100023.03;5026434;28;20028;-84
2022/11/14 01:30:23;;;;;;;0.63;0.60;;;;;;;9.14;100.00;100026.53;5023907;28;20553;-82
2022/11/14 01:32:49;;;;;;;0.47;0.47;;;;;;;9.13;100.00;100022.19;5005556;28;20095;-84
2022/11/14 01:35:17;;;;;;;0.40;0.40;;;;;;;9.01;100.00;99999.53;5026196;28;20033;-82
2022/11/14 01:37:42;;;;;;;1.02;1.02;;;;;;;9.10;100.00;100014.50;5021971;28;20483;-85
2022/11/14 01:40:09;;;;;;;0.30;0.30;;;;;;;9.05;100.00;100011.56;5004126;28;20064;-83
2022/11/14 01:42:34;;;;;;;0.40;0.40;;;;;;;8.97;100.00;100007.13;5021726;28;20121;-82
2022/11/14 01:45:00;;;;;;;1.75;1.75;;;;;;;9.08;100.00;100002.31;5006928;28;20486;-81
2022/11/14 01:47:29;;;;;;;0.40;0.40;;;;;;;9.08;100.00;100000.47;5022412;28;20034;-82
2022/11/14 01:49:58;;;;;;;0.40;0.40;;;;;;;9.15;100.00;100011.25;5002041;28;20037;-86
2022/11/14 01:52:29;;;;;;;1.55;1.02;;;;;;;9.12;100.00;100012.47;5022621;28;20029;-83
2022/11/14 01:54:58;;;;;;;0.40;0.40;;;;;;;9.16;100.00;100021.00;5024504;28;20476;-83
2022/11/14 01:57:30;;;;;;;0.40;0.40;;;;;;;9.17;100.00;100014.59;5020672;28;20047;-84
2022/11/14 01:59:59;;;;;;;0.40;0.40;;;;;;;9.19;100.00;100000.00;5048719;28;20025;-84
2022/11/14 02:02:25;;;;;;;0.30;0.30;;;;;;;9.23;100.00;100008.47;5014609;28;20029;-82
2022/11/14 02:04:55;;;;;;;7.97;1.98;;;;;;;9.03;100.00;99973.38;4987608;28;20315;-81
2022/11/14 02:07:22;;;;;;;0.30;0.30;;;;;;;9.20;100.00;100011.53;5021681;28;20411;-82
2022/11/14 02:09:48;;;;;;;0.40;0.40;;;;;;;9.07;100.00;99987.22;5005709;28;20033;-82
2022/11/14 02:12:16;;;;;;;0.40;0.40;;;;;;;9.20;100.00;100004.31;5022223;28;20369;-83
2022/11/14 02:14:46;;;;;;;0.55;0.55;;;;;;;9.18;100.00;100002.84;5017676;28;20029;-82
2022/11/14 02:17:13;;;;;;;2.03;1.02;;;;;;;9.14;100.00;99998.88;5010788;28;20033;-83
2022/11/14 02:19:51;;;;;;;0.40;0.40;;;;;;;9.14;100.00;99994.34;5004235;28;20033;-81
2022/11/14 02:22:17;;;;;;;0.75;0.75;;;;;;;9.14;100.00;99986.31;5017423;28;20040;-81
2022/11/14 02:24:43;;;;;;;0.60;0.60;;;;;;;9.12;100.00;99990.19;5018832;28;20029;-84
2022/11/14 02:27:09;;;;;;;2.80;2.60;;;;;;;9.15;100.00;99993.31;5024237;28;20048;-87
2022/11/14 02:29:35;;;;;;;0.30;0.30;;;;;;;9.13;100.00;99987.31;5022095;28;20047;-82
2022/11/14 02:32:01;;;;;;;0.40;0.40;;;;;;;9.12;100.00;99974.91;4991079;28;20049;-82
2022/11/14 02:34:27;;;;;;;1.23;1.02;;;;;;;9.19;100.00;99983.91;5024200;28;20052;-83
2022/11/14 02:36:53;;;;;;;0.32;0.32;;;;;;;9.19;100.00;99975.03;5026123;28;20415;-84
2022/11/14 02:39:19;;;;;;;0.88;0.88;;;;;;;9.14;100.00;99975.56;5017748;28;20069;-86
2022/11/14 02:41:44;;;;;;;0.52;0.52;;;;;;;9.16;100.00;99984.28;5014911;28;20148;-81
2022/11/14 02:44:10;;;;;;;0.68;0.68;;;;;;;9.13;100.00;99987.31;5021985;28;20037;-81
2022/11/14 02:46:36;;;;;;;0.40;0.40;;;;;;;9.06;100.00;99970.31;5018595;28;20029;-83
2022/11/14 02:49:01;;;;;;;0.63;0.63;;;;;;;9.07;100.00;99979.19;5024105;28;20040;-84
2022/11/14 02:51:27;;;;;;;0.30;0.30;;;;;;;9.05;100.00;99978.53;5017946;28;20032;-81
2022/11/14 02:53:52;;;;;;;0.70;0.70;;;;;;;9.05;100.00;99976.69;5010842;28;20046;-82
2022/11/14 02:56:18;;;;;;;0.30;0.30;;;;;;;8.96;100.00;99967.88;5024591;28;20387;-83
2022/11/14 02:58:44;;;;;;;0.40;0.40;;;;;;;9.06;100.00;99969.47;4990065;28;20037;-82
2022/11/14 03:01:10;;;;;;;0.35;0.35;;;;;;;9.05;100.00;99963.28;5004068;28;20478;-81
2022/11/14 03:03:36;;;;;;;0.55;0.55;;;;;;;9.06;100.00;99964.13;5038016;28;20394;-84
2022/11/14 03:06:02;;;;;;;0.57;0.57;;;;;;;9.12;100.00;99958.81;5027483;28;20047;-84
2022/11/14 03:08:28;;;;;;;0.30;0.30;;;;;;;9.04;100.00;99942.84;5037433;28;20033;-82
2022/11/14 03:10:54;;;;;;;0.45;0.45;;;;;;;9.18;100.00;99941.16;5022029;28;20079;-83
2022/11/14 03:13:20;;;;;;;0.40;0.40;;;;;;;9.24;100.00;99951.16;5024426;28;20464;-80
2022/11/14 03:15:45;;;;;;;0.40;0.40;;;;;;;9.28;100.00;99947.06;5002236;28;20034;-80
2022/11/14 03:18:13;;;;;;;0.40;0.40;;;;;;;9.33;100.00;99970.66;5011177;28;20037;-80
2022/11/14 03:20:39;;;;;;;0.40;0.40;;;;;;;9.35;100.00;99963.25;5024630;28;20503;-83
2022/11/14 03:23:04;;;;;;;0.30;0.30;;;;;;;9.25;100.00;99963.53;5026533;28;20037;-85
2022/11/14 03:25:30;;;;;;;0.40;0.40;;;;;;;9.16;100.00;99956.63;5011701;28;20029;-83
2022/11/14 03:27:56;;;;;;;0.40;0.40;;;;;;;9.11;100.00;99957.19;4991586;28;20381;-81
2022/11/14 03:30:21;;;;;;;0.30;0.30;;;;;;;8.91;100.00;99934.63;5022125;28;20044;-80
2022/11/14 03:32:47;;;;;;;0.40;0.40;;;;;;;8.85;100.00;99943.41;5022884;28;20033;-84
2022/11/14 03:35:13;;;;;;;0.40;0.40;;;;;;;8.72;100.00;99947.53;5005184;28;20439;-84
2022/11/14 03:37:38;;;;;;;0.40;0.40;;;;;;;8.63;100.00;99939.78;5001321;28;20132;-79
2022/11/14 03:40:05;;;;;;;0.30;0.30;;;;;;;8.62;100.00;99946.16;4992537;28;20388;-81
2022/11/14 03:42:36;;;;;;;0.40;0.40;;;;;;;8.62;100.00;99944.28;5021900;28;20104;-80
2022/11/14 03:45:02;;;;;;;0.30;0.30;;;;;;;8.61;100.00;99945.31;5007332;28;20049;-80
2022/11/14 03:47:28;;;;;;;0.40;0.40;;;;;;;8.62;100.00;99946.97;5019360;28;20032;-81
2022/11/14 03:49:59;;;;;;;0.30;0.30;;;;;;;8.62;100.00;99941.63;5023026;28;20451;-80
2022/11/14 03:52:25;;;;;;;0.32;0.32;;;;;;;8.56;100.00;99931.63;5018887;28;20045;-79
2022/11/14 03:54:51;;;;;;;0.38;0.38;;;;;;;8.58;100.00;99934.97;5022847;28;20041;-80
2022/11/14 03:57:16;;;;;;;0.40;0.40;;;;;;;8.57;100.00;99922.56;5021339;28;20033;-83
2022/11/14 03:59:42;;;;;;;0.30;0.30;;;;;;;8.62;100.00;99930.06;5018226;28;20440;-79
2022/11/14 04:02:07;;;;;;;0.35;0.35;;;;;;;8.53;100.00;99915.94;5021234;28;20034;-81
2022/11/14 04:04:33;;;;;;;0.40;0.40;;;;;;;8.60;100.00;99935.63;5007117;28;20029;-81
2022/11/14 04:06:59;;;;;;;0.40;0.40;;;;;;;8.56;100.00;99931.63;5018214;28;20029;-80
2022/11/14 04:09:24;;;;;;;0.35;0.35;;;;;;;8.58;100.00;99934.97;4993110;28;20029;-81
2022/11/14 04:11:50;;;;;;;0.40;0.40;;;;;;;8.52;100.00;99930.31;4992271;28;21008;-83
2022/11/14 04:14:16;;;;;;;0.30;0.30;;;;;;;8.48;100.00;99927.19;5023607;28;20043;-80
2022/11/14 04:16:41;;;;;;;0.40;0.40;;;;;;;8.47;100.00;99928.22;5025009;28;20459;-81
2022/11/14 04:19:07;;;;;;;0.30;0.30;;;;;;;8.47;100.00;99927.38;5005141;28;20103;-83
2022/11/14 04:21:33;;;;;;;0.40;0.40;;;;;;;8.47;100.00;99928.22;5056692;28;20546;-83
2022/11/14 04:24:00;;;;;;;0.40;0.40;;;;;;;8.45;100.00;99924.06;5019184;28;20040;-80
2022/11/14 04:26:26;;;;;;;0.40;0.40;;;;;;;8.44;100.00;99933.09;5021980;28;20037;-81
2022/11/14 04:28:51;;;;;;;0.40;0.40;;;;;;;8.44;100.00;99933.09;5002652;28;20034;-80
2022/11/14 04:31:17;;;;;;;0.40;0.40;;;;;;;8.40;100.00;99929.13;4991384;28;20038;-80
2022/11/14 04:33:43;;;;;;;0.30;0.30;;;;;;;8.41;100.00;99933.47;5010337;28;20464;-83
2022/11/14 04:36:09;;;;;;;0.40;0.40;;;;;;;8.41;100.00;99933.47;5013640;28;20037;-80
2022/11/14 04:38:34;;;;;;;0.35;0.35;;;;;;;8.25;100.00;99907.63;5026915;28;20170;-82
2022/11/14 04:41:00;;;;;;;0.40;0.40;;;;;;;8.44;100.00;99933.09;5027491;28;20029;-81
2022/11/14 04:43:25;;;;;;;0.40;0.40;;;;;;;8.44;100.00;99925.91;5005515;28;20044;-82
2022/11/14 04:45:51;;;;;;;0.40;0.40;;;;;;;8.44;100.00;99925.06;5021556;28;20036;-80
2022/11/14 04:48:17;;;;;;;0.40;0.40;;;;;;;8.44;100.00;99927.72;4995803;28;20402;-82
2022/11/14 04:50:44;;;;;;;0.30;0.30;;;;;;;8.44;100.00;99922.38;5016783;28;20420;-81
2022/11/14 04:53:10;;;;;;;0.40;0.40;;;;;;;8.43;100.00;99931.44;5015812;28;20120;-85
2022/11/14 04:55:35;;;;;;;0.40;0.40;;;;;;;8.42;100.00;99930.59;5016063;28;20447;-81
2022/11/14 04:58:01;;;;;;;0.40;0.40;;;;;;;8.40;100.00;99921.09;5013919;28;21918;-81
2022/11/14 05:00:27;;;;;;;0.40;0.40;;;;;;;8.37;100.00;99917.72;5021269;28;20480;-83
2022/11/14 05:02:52;;;;;;;0.40;0.40;;;;;;;8.36;100.00;99921.44;5025091;28;20045;-81
2022/11/14 05:05:18;;;;;;;0.40;0.40;;;;;;;8.34;100.00;99923.44;5012003;28;20037;-83
2022/11/14 05:07:44;;;;;;;0.40;0.40;;;;;;;8.33;100.00;99915.56;5003840;28;20541;-82
2022/11/14 05:10:09;;;;;;;0.30;0.30;;;;;;;8.31;100.00;99921.13;5024154;28;20040;-81
2022/11/14 05:12:35;;;;;;;0.40;0.40;;;;;;;8.30;100.00;99916.78;5013513;28;20026;-82
2022/11/14 05:15:01;;;;;;;0.30;0.30;;;;;;;8.30;100.00;99923.97;4989913;28;20558;-82
2022/11/14 05:17:27;;;;;;;0.30;0.30;;;;;;;8.26;100.00;99920.84;5019996;28;20034;-80
2022/11/14 05:19:53;;;;;;;0.40;0.40;;;;;;;8.27;100.00;99927.03;5019955;28;20108;-81
2022/11/14 05:22:19;;;;;;;0.40;0.40;;;;;;;8.25;100.00;99923.69;5007907;28;20102;-85
2022/11/14 05:24:44;;;;;;;0.40;0.40;;;;;;;8.23;100.00;99923.03;5006367;28;20315;-82
2022/11/14 05:27:10;;;;;;;0.30;0.30;;;;;;;8.09;100.00;99911.28;5027555;28;20051;-81
2022/11/14 05:29:35;;;;;;;0.40;0.40;;;;;;;7.98;100.00;99907.19;5019976;28;20613;-80
2022/11/14 05:32:01;;;;;;;0.40;0.40;;;;;;;8.05;100.00;99921.53;5024881;28;20037;-81
2022/11/14 05:34:27;;;;;;;0.38;0.38;;;;;;;8.08;100.00;99909.63;5019558;28;20029;-80
2022/11/14 05:37:03;;;;;;;0.30;0.30;;;;;;;8.08;100.00;99913.13;5000751;28;20526;-81
2022/11/14 05:39:30;;;;;;;0.40;0.40;;;;;;;8.10;100.00;99905.75;5022870;28;20060;-83
2022/11/14 05:41:55;;;;;;;0.30;0.30;;;;;;;8.13;100.00;99909.91;5023890;28;20104;-80
2022/11/14 05:44:21;;;;;;;0.30;0.30;;;;;;;8.07;100.00;99899.91;5022881;28;20502;-81
2022/11/14 05:46:49;;;;;;;0.30;0.30;;;;;;;8.18;100.00;99920.91;5009597;28;20037;-81
2022/11/14 05:49:15;;;;;;;0.40;0.40;;;;;;;8.17;100.00;99910.38;5023412;28;20030;-81
2022/11/14 05:51:40;;;;;;;0.40;0.40;;;;;;;8.20;100.00;99918.88;5008693;28;20029;-83
2022/11/14 05:54:06;;;;;;;0.40;0.40;;;;;;;8.23;100.00;99918.53;5022260;28;20311;-83
2022/11/14 05:56:31;;;;;;;0.30;0.30;;;;;;;8.13;100.00;99916.09;5008089;28;20043;-83
2022/11/14 05:58:57;;;;;;;0.40;0.40;;;;;;;8.04;100.00;99910.97;5010191;28;20371;-81
2022/11/14 06:01:23;;;;;;;0.30;0.30;;;;;;;7.83;100.00;99891.09;5009392;28;20079;-82
2022/11/14 06:03:48;;;;;;;0.30;0.30;;;;;;;7.66;100.00;99902.91;5025596;28;20065;-83
2022/11/14 06:06:17;;;;;;;0.40;0.40;;;;;;;7.44;100.00;99900.06;4990509;28;20049;-81
2022/11/14 06:08:42;;;;;;;0.30;0.30;;;;;;;7.30;100.00;99903.47;5025963;28;20041;-85
2022/11/14 06:11:11;;;;;;;0.30;0.30;;;;;;;7.03;100.00;99892.22;5008023;28;20511;-81
2022/11/14 06:13:37;;;;;;;0.38;0.38;;;;;;;6.93;100.00;99905.00;5007805;28;20033;-83
2022/11/14 06:16:05;;;;;;;0.30;0.30;;;;;;;6.74;100.00;99908.88;5010300;28;20033;-80
2022/11/14 06:18:32;;;;;;;0.30;0.30;;;;;;;6.62;100.00;99909.44;5022870;28;20025;-83
2022/11/14 06:21:19;;;;;;;0.30;0.30;;;;;;;6.51;100.00;99906.13;5026329;28;20444;-83
2022/11/14 06:23:45;;;;;;;0.30;0.30;;;;;;;6.39;100.00;99894.13;5020786;28;20049;-80
2022/11/14 06:26:19;;;;;;;0.40;0.40;;;;;;;6.39;100.00;99907.47;5020593;28;20111;-81
2022/11/14 06:28:45;;;;;;;0.40;0.40;;;;;;;6.20;100.00;99895.31;5021706;28;20677;-80
2022/11/14 06:31:10;;;;;;;0.30;0.30;;;;;;;6.27;100.00;99904.31;5022735;28;20060;-81
2022/11/14 06:33:36;;;;;;;0.40;0.40;;;;;;;6.34;100.00;99907.13;5024522;28;20041;-80
2022/11/14 06:36:05;;;;;;;0.40;0.40;;;;;;;6.37;100.00;99907.63;5023803;28;20037;-83
2022/11/14 06:38:31;;;;;;;0.40;0.40;;;;;;;6.24;100.00;99915.31;5023201;28;20411;-83
2022/11/14 06:41:09;;;;;;;0.40;0.40;;;;;;;6.10;100.00;99905.34;5011737;28;20525;-80
2022/11/14 06:43:36;;;;;;;0.40;0.40;;;;;;;6.11;100.00;99907.00;5005565;28;20025;-82
2022/11/14 06:46:02;;;;;;;0.40;0.40;;;;;;;6.12;100.00;99901.50;4990764;28;20049;-83
2022/11/14 06:48:28;;;;;;;0.40;0.40;;;;;;;6.09;100.00;99896.50;5020344;28;20399;-82
2022/11/14 06:50:55;;;;;;;0.40;0.40;;;;;;;6.04;100.00;99893.50;5048678;28;20032;-81
2022/11/14 06:53:21;;;;;;;0.30;0.30;;;;;;;5.97;100.00;99895.16;5017477;28;20034;-83
2022/11/14 06:55:57;;;;;;;0.40;0.40;;;;;;;5.95;100.00;99897.16;5024124;28;20116;-81
2022/11/14 06:58:31;;;;;;;0.35;0.35;;;;;;;5.90;100.00;99902.97;5016519;28;20111;-83
2022/11/14 07:00:56;;;;;;;;;;;;;;;5.84;100.00;99902.78;5050834;28;20101;-81
2022/11/14 07:03:22;;;;;;;0.40;0.40;;;;;;;5.70;100.00;99897.13;5019093;28;19925;-80
2022/11/14 07:05:47;;;;;;;0.40;0.40;;;;;;;5.60;100.00;99900.94;5024931;28;20369;-85
2022/11/14 07:08:14;;;;;;;0.40;0.40;;;;;;;5.40;100.00;99900.38;5016258;28;20044;-81
2022/11/14 07:10:39;;;;;;;0.40;0.40;;;;;;;5.19;100.00;99903.53;5016777;28;20071;-81
2022/11/14 07:13:10;;;;;;;0.50;0.50;;;;;;;5.05;100.00;99889.84;5016871;28;20037;-81
2022/11/14 07:15:36;;;;;;;0.40;0.40;;;;;;;5.08;100.00;99894.00;5018730;28;20026;-81
2022/11/14 07:18:01;;;;;;;0.40;0.40;;;;;;;5.14;100.00;99893.34;5005365;28;20041;-84
2022/11/14 07:20:27;;;;;;;0.40;0.40;;;;;;;5.24;100.00;99904.72;5024305;28;20356;-80
2022/11/14 07:22:52;;;;;;;0.40;0.40;;;;;;;5.02;100.00;99878.66;5021679;28;20499;-80
2022/11/14 07:25:21;;;;;;;0.40;0.40;;;;;;;5.05;100.00;99889.84;4989803;28;20037;-80
2022/11/14 07:27:47;;;;;;;0.40;0.40;;;;;;;5.20;100.00;99905.19;5015292;28;20036;-83
2022/11/14 07:30:13;;;;;;;0.40;0.40;;;;;;;5.40;100.00;99895.06;5007507;28;20037;-81
2022/11/14 07:32:39;;;;;;;0.40;0.40;;;;;;;5.71;100.00;99897.94;5026344;28;20072;-81
2022/11/14 07:35:05;;;;;;;0.40;0.40;;;;;;;5.82;100.00;99891.44;5020370;28;20033;-83
2022/11/14 07:37:30;;;;;;;0.50;0.50;;;;;;;5.90;100.00;99894.97;5030374;28;20041;-80
2022/11/14 07:39:56;;;;;;;0.30;0.30;;;;;;;5.91;100.00;99883.28;5029429;28;20075;-84
2022/11/14 07:42:24;;;;;;;0.40;0.40;;;;;;;5.93;100.00;99893.81;5016095;28;20033;-82
2022/11/14 07:44:49;;;;;;;0.40;0.40;;;;;;;5.91;100.00;99891.28;5007564;28;20047;-83
2022/11/14 07:47:15;;;;;;;0.40;0.40;;;;;;;5.91;100.00;99890.47;5007700;28;20038;-84
2022/11/14 07:49:41;;;;;;;0.40;0.40;;;;;;;5.93;100.00;99885.81;5011215;28;20095;-81
2022/11/14 07:52:06;;;;;;;0.40;0.40;;;;;;;5.85;100.00;99885.81;5027950;28;20119;-84
2022/11/14 07:54:32;;;;;;;0.40;0.40;;;;;;;5.91;100.00;99896.63;4987391;28;20038;-82
2022/11/14 07:56:57;;;;;;;0.40;0.40;;;;;;;5.86;100.00;99903.47;5025993;28;20041;-80
2022/11/14 07:59:23;;;;;;;0.40;0.40;;;;;;;5.69;100.00;99892.78;4993492;28;20044;-84
2022/11/14 08:01:51;;;;;;;0.40;0.40;;;;;;;5.80;100.00;99901.47;5024794;28;20036;-89
2022/11/14 08:04:16;;;;;;;0.40;0.40;;;;;;;5.71;100.00;99889.94;5020946;28;20643;-80
2022/11/14 08:06:42;;;;;;;0.40;0.40;;;;;;;5.76;100.00;99897.47;5009634;28;20030;-81
2022/11/14 08:09:08;;;;;;;0.40;0.40;;;;;;;5.72;100.00;99887.13;5042041;28;20462;-81
2022/11/14 08:11:48;;;;;;;0.40;0.40;;;;;;;5.73;100.00;99883.44;5043280;28;20037;-81
2022/11/14 08:14:14;;;;;;;0.40;0.40;;;;;;;5.62;100.00;99881.13;4990112;28;20060;-81
2022/11/14 08:16:40;;;;;;;0.40;0.40;;;;;;;5.66;100.00;99892.28;5023459;28;20037;-83
2022/11/14 08:19:06;;;;;;;0.40;0.40;;;;;;;5.56;100.00;99891.59;5025707;28;20033;-80
2022/11/14 08:21:32;;;;;;;0.40;0.40;;;;;;;5.37;100.00;99860.75;5026194;28;20017;-82
2022/11/14 08:23:57;;;;;;;0.40;0.40;;;;;;;5.45;100.00;99890.94;5022885;28;20029;-81
2022/11/14 08:26:23;;;;;;;0.40;0.40;;;;;;;5.29;100.00;99882.88;5009353;28;20358;-81
2022/11/14 08:28:53;;;;;;;0.38;0.38;;;;;;;5.29;100.00;99874.88;4992543;28;20033;-83
2022/11/14 08:31:20;;;;;;;0.40;0.40;;;;;;;5.41;100.00;99870.09;5026779;28;20029;-82
2022/11/14 08:33:48;;;;;;;0.40;0.40;;;;;;;5.54;100.00;99886.44;4996175;28;20030;-82
2022/11/14 08:36:14;;;;;;;0.40;0.40;;;;;;;5.61;100.00;99879.47;5008696;28;20095;-83
2022/11/14 08:38:40;;;;;;;0.40;0.40;;;;;;;5.67;100.00;99881.44;5028563;28;20038;-81
2022/11/14 08:41:05;;;;;;;0.40;0.40;;;;;;;5.71;100.00;99880.09;5024939;28;20112;-81
2022/11/14 08:43:31;;;;;;;0.50;0.50;;;;;;;5.78;100.00;99874.13;5011054;28;20034;-83
2022/11/14 08:45:58;;;;;;;0.50;0.50;;;;;;;5.82;100.00;99864.78;5010505;28;20037;-81
2022/11/14 08:48:24;;;;;;;0.40;0.40;;;;;;;5.91;100.00;99863.78;5026806;28;20029;-81
2022/11/14 08:50:50;;;;;;;0.40;0.40;;;;;;;6.06;100.00;99861.28;5024885;28;20025;-82
2022/11/14 08:53:15;;;;;;;0.40;0.40;;;;;;;6.13;100.00;99868.44;5010951;28;20041;-81
2022/11/14 08:55:45;;;;;;;0.50;0.50;;;;;;;6.03;100.00;99859.78;5008954;28;20041;-82
2022/11/14 08:58:11;;;;;;;0.40;0.40;;;;;;;6.19;100.00;99861.59;4995613;28;20068;-85
2022/11/14 09:00:37;;;;;;;0.40;0.40;;;;;;;6.52;100.00;99861.53;5022253;28;20065;-83
2022/11/14 09:03:14;;;;;;;0.50;0.50;;;;;;;6.98;100.00;99854.50;5028047;28;20061;-84
2022/11/14 09:05:41;;;;;;;0.50;0.50;;;;;;;7.62;100.00;99853.44;5017643;28;20033;-81
2022/11/14 09:08:07;;;;;;;0.50;0.50;;;;;;;8.39;100.00;99853.28;5061898;28;20033;-82
2022/11/14 09:10:33;;;;;;;0.50;0.50;;;;;;;8.87;100.00;99844.88;5024871;28;20037;-82
2022/11/14 09:13:00;;;;;;;0.50;0.50;;;;;;;9.72;100.00;99848.69;5004425;28;20033;-85
2022/11/14 09:15:29;;;;;;;0.50;0.50;;;;;;;10.13;100.00;99836.22;4992176;28;20026;-84
2022/11/14 09:17:55;;;;;;;0.50;0.50;;;;;;;10.68;100.00;99827.47;5040649;28;20029;-82
2022/11/14 09:20:24;;;;;;;0.50;0.50;;;;;;;11.27;100.00;99837.63;5010494;28;20029;-81
2022/11/14 09:22:52;;;;;;;0.60;0.60;;;;;;;11.65;100.00;99831.72;5023603;28;20068;-85
2022/11/14 09:25:20;;;;;;;0.50;0.50;;;;;;;11.55;100.00;99826.72;5022681;28;20037;-81
2022/11/14 09:27:46;;;;;;;0.50;0.50;;;;;;;11.09;100.00;99822.06;5004275;28;20491;-86
2022/11/14 09:30:13;;;;;;;0.50;0.50;;;;;;;10.92;100.00;99812.69;5025619;28;20128;-86
2022/11/14 09:32:38;;;;;;;0.50;0.50;;;;;;;11.04;100.00;99823.72;5023206;28;20028;-85
2022/11/14 09:35:04;;;;;;;0.60;0.60;;;;;;;11.88;99.97;99813.31;5010378;28;20395;-87
2022/11/14 09:37:30;;;;;;;0.70;0.70;;;;;;;12.91;95.33;99820.78;4993035;28;20140;-84
2022/11/14 09:39:56;;;;;;;0.70;0.70;;;;;;;13.84;90.31;99804.03;5024169;28;20370;-86
2022/11/14 09:42:58;;;;;;;0.60;0.60;;;;;;;14.76;86.40;99808.72;5025336;28;20036;-86
2022/11/14 09:45:26;;;;;;;0.70;0.70;;;;;;;15.31;84.06;99815.94;5029769;28;20026;-85
2022/11/14 09:48:02;;;;;;;0.70;0.70;;;;;;;15.80;81.74;99797.75;5011627;28;20139;-84
2022/11/14 09:50:31;;;;;;;0.60;0.60;;;;;;;16.10;80.43;99805.78;5027839;28;20128;-84
2022/11/14 09:53:06;;;;;;;0.60;0.60;;;;;;;16.44;79.73;99795.16;4995257;28;20475;-84
2022/11/14 09:55:33;;;;;;;0.68;0.68;;;;;;;16.73;78.46;99806.09;4991367;28;20029;-88
2022/11/14 09:58:01;;;;;;;0.70;0.70;;;;;;;16.81;77.65;99795.69;5023126;28;20033;-84
2022/11/14 10:00:38;;;;;;;0.73;0.73;;;;;;;16.86;78.52;99792.25;5027552;28;20468;-85
2022/11/14 10:03:07;;;;;;;0.60;0.60;;;;;;;17.09;77.20;99786.75;5028779;28;20146;-85
2022/11/14 10:05:38;;;;;;;0.60;0.60;;;;;;;17.38;76.83;99800.31;5007221;28;20035;-86
2022/11/14 10:08:30;;;;;;;0.70;0.70;;;;;;;17.57;76.37;99785.44;5001155;28;20042;-87
2022/11/14 10:11:21;;;;;;;0.60;0.60;;;;;;;17.86;76.88;99793.56;5029430;28;20034;-86
2022/11/14 10:14:15;;;;;;;0.70;0.70;;;;;;;18.07;76.41;99786.53;5045689;28;20042;-85
2022/11/14 10:16:52;;;;;;;0.68;0.68;;;;;;;18.27;74.18;99780.56;5013580;28;20033;-84
2022/11/14 10:19:33;;;;;;;0.65;0.65;;;;;;;18.45;75.09;99772.13;5029413;28;20491;-85
2022/11/14 10:22:26;;;;;;;0.70;0.70;;;;;;;18.70;73.64;99761.81;5024474;28;20018;-86
2022/11/14 10:25:13;;;;;;;0.70;0.70;;;;;;;18.84;74.19;99758.47;4992764;28;20037;-85
2022/11/14 10:27:48;;;;;;;1.40;1.38;;;;;;;17.87;77.35;99750.88;5028887;28;20041;-86
2022/11/14 10:30:18;;;;;;;1.25;1.23;;;;;;;17.39;79.42;99758.50;5010603;28;20487;-87
2022/11/14 10:32:43;;;;;;;1.70;1.52;;;;;;;17.85;77.01;99758.44;5019863;28;20106;-85
2022/11/14 10:35:15;;;;;;;1.40;1.30;;;;;;;18.23;75.15;99747.63;5028866;28;20037;-85
2022/11/14 10:37:44;;;;;;;2.92;2.17;;;;;;;18.20;75.66;99742.66;5025786;28;20021;-85
2022/11/14 10:40:18;;;;;;;2.22;1.52;;;;;;;18.31;74.81;99742.78;5028406;28;20038;-87
2022/11/14 10:42:46;;;;;;;1.60;1.50;;;;;;;18.41;73.08;99737.47;5005236;28;20038;-86
2022/11/14 10:45:17;;;;;;;2.00;1.40;;;;;;;17.91;75.19;99741.94;4986523;28;20030;-86
2022/11/14 10:47:50;;;;;;;3.78;1.60;;;;;;;17.67;77.26;99726.88;5005999;28;20087;-85
2022/11/14 10:50:24;;;;;;;3.95;1.33;;;;;;;17.54;77.73;99723.44;5006478;28;20469;-85
2022/11/14 10:52:55;;;;;;;7.78;2.08;;;;;;;17.21;78.25;99717.97;5009596;28;20438;-86
2022/11/14 10:55:23;;;;;;;4.38;1.88;;;;;;;17.15;79.68;99736.06;4996023;28;20498;-88
2022/11/14 10:57:51;;;;;;;1.55;1.00;;;;;;;16.49;82.72;99706.53;5004580;28;20243;-84
2022/11/14 11:00:24;;;;;;;2.38;1.00;;;;;;;15.75;84.52;99719.84;5002930;28;20030;-86
2022/11/14 11:02:52;;;;;;;2.35;1.27;;;;;;;14.75;90.23;99719.69;5024882;28;20033;-77
2022/11/14 11:05:21;;;;;;;3.90;2.28;;;;;;;14.20;92.32;99704.28;5015365;28;20064;-79
2022/11/14 11:13:33;;;;;;;4.30;1.33;;;;;;;15.45;85.03;99706.31;5010228;28;20536;-78
2022/11/14 11:16:08;;;;;;;3.92;2.78;;;;;;;15.01;87.88;99707.66;4986318;28;20048;-78
2022/11/14 11:18:35;;;;;;;3.83;1.67;;;;;;;14.34;91.50;99700.38;5012527;28;20025;-78
2022/11/14 11:21:10;;;;;;;1.83;1.20;;;;;;;14.56;89.87;99689.94;5018072;28;20117;-78
2022/11/14 11:23:52;;;;;;;3.15;1.40;;;;;;;14.36;91.54;99686.63;5030983;28;20040;-77
2022/11/14 11:26:21;;;;;;;4.53;0.95;;;;;;;14.22;92.01;99688.69;5025693;28;20060;-77
2022/11/14 11:29:11;;;;;;;4.55;2.10;;;;;;;14.78;90.22;99690.28;5008192;28;20121;-79
2022/11/14 11:32:03;;;;;;;3.70;1.77;;;;;;;14.99;89.88;99675.41;5039858;28;20037;-78
2022/11/14 11:34:32;;;;;;;2.45;1.42;;;;;;;15.26;88.12;99673.09;5043964;28;20120;-78
2022/11/14 11:37:19;;;;;;;6.28;2.67;;;;;;;17.00;81.95;99685.00;5016687;28;20048;-79
2022/11/14 11:39:52;;;;;;;3.15;2.15;;;;;;;17.96;77.87;99676.75;5009734;28;20431;-78
2022/11/14 11:42:22;;;;;;;2.55;1.42;;;;;;;16.85;78.06;99671.97;5024170;28;20044;-80